sensor_id;sensor_type;location;lat;lon;timestamp;P1;durP1;ratioP1;P2;durP2;ratioP2
56242;SDS011;42155;53.096;23.226;2023-09-08T00:00:53;4.78;;;2.50;;
56242;SDS011;42155;53.096;23.226;2023-09-08T00:02:53;4.38;;;2.42;;
56242;SDS011;42155;53.096;23.226;2023-09-08T00:04:54;6.35;;;2.72;;
56242;SDS011;42155;53.096;23.226;2023-09-08T00:06:54;5.78;;;2.65;;
56242;SDS011;42155;53.096;23.226;2023-09-08T00:08:55;4.97;;;2.33;;
56242;SDS011;42155;53.096;23.226;2023-09-08T00:10:55;6.85;;;2.08;;
56242;SDS011;42155;53.096;23.226;2023-09-08T00:12:55;4.50;;;2.40;;
56242;SDS011;42155;53.096;23.226;2023-09-08T00:14:56;7.53;;;2.72;;
56242;SDS011;42155;53.096;23.226;2023-09-08T00:16:56;6.50;;;2.50;;
56242;SDS011;42155;53.096;23.226;2023-09-08T00:18:57;4.72;;;2.47;;
56242;SDS011;42155;53.096;23.226;2023-09-08T00:20:57;6.07;;;2.70;;
56242;SDS011;42155;53.096;23.226;2023-09-08T00:22:57;6.05;;;2.65;;
56242;SDS011;42155;53.096;23.226;2023-09-08T00:24:58;4.88;;;2.47;;
56242;SDS011;42155;53.096;23.226;2023-09-08T00:26:58;6.80;;;2.53;;
56242;SDS011;42155;53.096;23.226;2023-09-08T00:28:58;6.22;;;2.38;;
56242;SDS011;42155;53.096;23.226;2023-09-08T00:30:59;9.40;;;2.70;;
56242;SDS011;42155;53.096;23.226;2023-09-08T00:32:59;7.90;;;2.75;;
56242;SDS011;42155;53.096;23.226;2023-09-08T00:34:59;4.95;;;2.03;;
56242;SDS011;42155;53.096;23.226;2023-09-08T00:36:59;5.85;;;2.33;;
56242;SDS011;42155;53.096;23.226;2023-09-08T00:39:00;4.80;;;2.65;;
56242;SDS011;42155;53.096;23.226;2023-09-08T00:41:00;4.38;;;2.67;;
56242;SDS011;42155;53.096;23.226;2023-09-08T00:43:01;5.88;;;2.40;;
56242;SDS011;42155;53.096;23.226;2023-09-08T00:45:01;3.60;;;2.30;;
56242;SDS011;42155;53.096;23.226;2023-09-08T00:47:01;6.00;;;2.45;;
56242;SDS011;42155;53.096;23.226;2023-09-08T00:49:02;6.03;;;2.33;;
56242;SDS011;42155;53.096;23.226;2023-09-08T00:51:03;8.32;;;2.88;;
56242;SDS011;42155;53.096;23.226;2023-09-08T00:53:04;3.97;;;2.13;;
56242;SDS011;42155;53.096;23.226;2023-09-08T00:55:05;5.57;;;2.65;;
56242;SDS011;42155;53.096;23.226;2023-09-08T00:57:06;9.32;;;2.60;;
56242;SDS011;42155;53.096;23.226;2023-09-08T00:59:07;5.50;;;2.33;;
56242;SDS011;42155;53.096;23.226;2023-09-08T01:01:07;9.00;;;2.70;;
56242;SDS011;42155;53.096;23.226;2023-09-08T01:03:08;7.80;;;2.60;;
56242;SDS011;42155;53.096;23.226;2023-09-08T01:05:08;8.68;;;2.40;;
56242;SDS011;42155;53.096;23.226;2023-09-08T01:07:09;5.70;;;2.17;;
56242;SDS011;42155;53.096;23.226;2023-09-08T01:09:10;4.82;;;2.30;;
56242;SDS011;42155;53.096;23.226;2023-09-08T01:11:11;7.88;;;2.72;;
56242;SDS011;42155;53.096;23.226;2023-09-08T01:13:11;8.45;;;2.50;;
56242;SDS011;42155;53.096;23.226;2023-09-08T01:15:12;6.22;;;2.25;;
56242;SDS011;42155;53.096;23.226;2023-09-08T01:17:12;6.70;;;2.70;;
56242;SDS011;42155;53.096;23.226;2023-09-08T01:19:13;4.07;;;2.30;;
56242;SDS011;42155;53.096;23.226;2023-09-08T01:21:29;8.70;;;2.97;;
56242;SDS011;42155;53.096;23.226;2023-09-08T01:26:07;4.68;;;2.47;;
56242;SDS011;42155;53.096;23.226;2023-09-08T01:28:10;8.63;;;2.65;;
56242;SDS011;42155;53.096;23.226;2023-09-08T01:30:12;6.75;;;2.95;;
56242;SDS011;42155;53.096;23.226;2023-09-08T01:32:13;6.32;;;2.78;;
56242;SDS011;42155;53.096;23.226;2023-09-08T01:34:14;5.20;;;2.30;;
56242;SDS011;42155;53.096;23.226;2023-09-08T01:36:15;4.32;;;2.30;;
56242;SDS011;42155;53.096;23.226;2023-09-08T01:38:15;6.15;;;2.42;;
56242;SDS011;42155;53.096;23.226;2023-09-08T01:40:16;6.03;;;2.65;;
56242;SDS011;42155;53.096;23.226;2023-09-08T01:42:16;4.30;;;2.70;;
56242;SDS011;42155;53.096;23.226;2023-09-08T01:44:17;6.13;;;2.55;;
56242;SDS011;42155;53.096;23.226;2023-09-08T01:46:17;5.93;;;2.50;;
56242;SDS011;42155;53.096;23.226;2023-09-08T01:48:17;6.22;;;2.58;;
56242;SDS011;42155;53.096;23.226;2023-09-08T01:50:18;5.03;;;2.15;;
56242;SDS011;42155;53.096;23.226;2023-09-08T01:52:18;4.03;;;2.13;;
56242;SDS011;42155;53.096;23.226;2023-09-08T01:54:18;5.75;;;2.30;;
56242;SDS011;42155;53.096;23.226;2023-09-08T01:56:19;4.82;;;2.65;;
56242;SDS011;42155;53.096;23.226;2023-09-08T01:58:19;5.22;;;2.80;;
56242;SDS011;42155;53.096;23.226;2023-09-08T02:00:19;5.07;;;2.40;;
56242;SDS011;42155;53.096;23.226;2023-09-08T02:02:20;4.70;;;2.50;;
56242;SDS011;42155;53.096;23.226;2023-09-08T02:04:20;7.03;;;2.78;;
56242;SDS011;42155;53.096;23.226;2023-09-08T02:06:20;4.53;;;2.42;;
56242;SDS011;42155;53.096;23.226;2023-09-08T02:08:21;5.90;;;2.50;;
56242;SDS011;42155;53.096;23.226;2023-09-08T02:10:21;4.07;;;2.17;;
56242;SDS011;42155;53.096;23.226;2023-09-08T02:12:21;4.95;;;2.33;;
56242;SDS011;42155;53.096;23.226;2023-09-08T02:14:22;4.85;;;2.50;;
56242;SDS011;42155;53.096;23.226;2023-09-08T02:16:22;8.27;;;2.75;;
56242;SDS011;42155;53.096;23.226;2023-09-08T02:18:22;4.82;;;2.58;;
56242;SDS011;42155;53.096;23.226;2023-09-08T02:20:23;6.93;;;2.72;;
56242;SDS011;42155;53.096;23.226;2023-09-08T02:22:23;5.70;;;2.42;;
56242;SDS011;42155;53.096;23.226;2023-09-08T02:24:23;6.60;;;2.45;;
56242;SDS011;42155;53.096;23.226;2023-09-08T02:26:24;5.70;;;2.28;;
56242;SDS011;42155;53.096;23.226;2023-09-08T02:28:24;7.15;;;2.95;;
56242;SDS011;42155;53.096;23.226;2023-09-08T02:30:24;6.35;;;2.72;;
56242;SDS011;42155;53.096;23.226;2023-09-08T02:32:25;4.70;;;2.72;;
56242;SDS011;42155;53.096;23.226;2023-09-08T02:34:25;9.23;;;2.38;;
56242;SDS011;42155;53.096;23.226;2023-09-08T02:36:26;5.28;;;2.45;;
56242;SDS011;42155;53.096;23.226;2023-09-08T02:38:26;5.90;;;2.67;;
56242;SDS011;42155;53.096;23.226;2023-09-08T02:40:26;11.20;;;3.33;;
56242;SDS011;42155;53.096;23.226;2023-09-08T02:42:27;8.70;;;2.67;;
56242;SDS011;42155;53.096;23.226;2023-09-08T02:44:27;7.30;;;2.70;;
56242;SDS011;42155;53.096;23.226;2023-09-08T02:46:27;6.90;;;2.40;;
56242;SDS011;42155;53.096;23.226;2023-09-08T02:48:28;4.43;;;2.53;;
56242;SDS011;42155;53.096;23.226;2023-09-08T02:50:28;12.10;;;2.80;;
56242;SDS011;42155;53.096;23.226;2023-09-08T02:52:28;6.43;;;2.75;;
56242;SDS011;42155;53.096;23.226;2023-09-08T02:54:28;6.18;;;2.33;;
56242;SDS011;42155;53.096;23.226;2023-09-08T02:56:29;5.68;;;2.10;;
56242;SDS011;42155;53.096;23.226;2023-09-08T02:58:29;4.22;;;2.30;;
56242;SDS011;42155;53.096;23.226;2023-09-08T03:00:29;4.38;;;2.30;;
56242;SDS011;42155;53.096;23.226;2023-09-08T03:02:30;5.40;;;2.20;;
56242;SDS011;42155;53.096;23.226;2023-09-08T03:04:30;5.22;;;2.50;;
56242;SDS011;42155;53.096;23.226;2023-09-08T03:06:31;9.13;;;2.83;;
56242;SDS011;42155;53.096;23.226;2023-09-08T03:08:31;6.30;;;2.55;;
56242;SDS011;42155;53.096;23.226;2023-09-08T03:10:32;4.63;;;2.20;;
56242;SDS011;42155;53.096;23.226;2023-09-08T03:12:33;5.15;;;2.80;;
56242;SDS011;42155;53.096;23.226;2023-09-08T03:14:33;6.80;;;2.63;;
56242;SDS011;42155;53.096;23.226;2023-09-08T03:16:33;6.13;;;2.70;;
56242;SDS011;42155;53.096;23.226;2023-09-08T03:18:34;6.40;;;2.78;;
56242;SDS011;42155;53.096;23.226;2023-09-08T03:20:35;8.35;;;3.05;;
56242;SDS011;42155;53.096;23.226;2023-09-08T03:22:36;5.53;;;2.13;;
56242;SDS011;42155;53.096;23.226;2023-09-08T03:24:36;4.25;;;2.13;;
56242;SDS011;42155;53.096;23.226;2023-09-08T03:26:36;5.65;;;2.38;;
56242;SDS011;42155;53.096;23.226;2023-09-08T03:28:37;4.85;;;2.70;;
56242;SDS011;42155;53.096;23.226;2023-09-08T03:30:38;4.75;;;2.60;;
56242;SDS011;42155;53.096;23.226;2023-09-08T03:32:38;8.32;;;2.50;;
56242;SDS011;42155;53.096;23.226;2023-09-08T03:34:39;6.55;;;3.05;;
56242;SDS011;42155;53.096;23.226;2023-09-08T03:36:39;7.65;;;2.60;;
56242;SDS011;42155;53.096;23.226;2023-09-08T03:38:39;6.28;;;3.10;;
56242;SDS011;42155;53.096;23.226;2023-09-08T03:40:40;6.65;;;2.53;;
56242;SDS011;42155;53.096;23.226;2023-09-08T03:42:40;5.97;;;2.95;;
56242;SDS011;42155;53.096;23.226;2023-09-08T03:44:40;10.05;;;3.10;;
56242;SDS011;42155;53.096;23.226;2023-09-08T03:46:41;9.75;;;2.72;;
56242;SDS011;42155;53.096;23.226;2023-09-08T03:48:41;6.80;;;2.90;;
56242;SDS011;42155;53.096;23.226;2023-09-08T03:50:41;7.45;;;2.72;;
56242;SDS011;42155;53.096;23.226;2023-09-08T03:52:42;7.25;;;3.13;;
56242;SDS011;42155;53.096;23.226;2023-09-08T03:54:42;6.18;;;2.97;;
56242;SDS011;42155;53.096;23.226;2023-09-08T03:56:42;12.70;;;3.40;;
56242;SDS011;42155;53.096;23.226;2023-09-08T03:58:43;7.80;;;3.53;;
56242;SDS011;42155;53.096;23.226;2023-09-08T04:00:43;15.00;;;5.60;;
56242;SDS011;42155;53.096;23.226;2023-09-08T04:02:43;14.05;;;5.20;;
56242;SDS011;42155;53.096;23.226;2023-09-08T04:04:44;13.52;;;5.78;;
56242;SDS011;42155;53.096;23.226;2023-09-08T04:06:44;12.95;;;6.53;;
56242;SDS011;42155;53.096;23.226;2023-09-08T04:08:45;19.55;;;8.65;;
56242;SDS011;42155;53.096;23.226;2023-09-08T04:10:45;21.15;;;11.18;;
56242;SDS011;42155;53.096;23.226;2023-09-08T04:12:45;27.55;;;10.63;;
56242;SDS011;42155;53.096;23.226;2023-09-08T04:14:46;28.08;;;12.80;;
56242;SDS011;42155;53.096;23.226;2023-09-08T04:16:46;35.58;;;14.80;;
56242;SDS011;42155;53.096;23.226;2023-09-08T04:18:46;31.55;;;13.73;;
56242;SDS011;42155;53.096;23.226;2023-09-08T04:20:47;34.05;;;13.43;;
56242;SDS011;42155;53.096;23.226;2023-09-08T04:22:47;22.95;;;11.73;;
56242;SDS011;42155;53.096;23.226;2023-09-08T04:24:47;25.10;;;12.00;;
56242;SDS011;42155;53.096;23.226;2023-09-08T04:26:48;27.75;;;12.18;;
56242;SDS011;42155;53.096;23.226;2023-09-08T04:28:48;23.15;;;10.63;;
56242;SDS011;42155;53.096;23.226;2023-09-08T04:30:48;19.73;;;9.88;;
56242;SDS011;42155;53.096;23.226;2023-09-08T04:32:49;21.50;;;9.18;;
56242;SDS011;42155;53.096;23.226;2023-09-08T04:34:49;24.17;;;10.65;;
56242;SDS011;42155;53.096;23.226;2023-09-08T04:36:49;22.52;;;9.50;;
56242;SDS011;42155;53.096;23.226;2023-09-08T04:38:49;22.20;;;10.50;;
56242;SDS011;42155;53.096;23.226;2023-09-08T04:40:50;18.35;;;8.43;;
56242;SDS011;42155;53.096;23.226;2023-09-08T04:42:50;17.70;;;8.77;;
56242;SDS011;42155;53.096;23.226;2023-09-08T04:44:50;19.38;;;8.82;;
56242;SDS011;42155;53.096;23.226;2023-09-08T04:46:51;19.92;;;8.13;;
56242;SDS011;42155;53.096;23.226;2023-09-08T04:48:52;17.02;;;8.25;;
56242;SDS011;42155;53.096;23.226;2023-09-08T04:50:53;16.58;;;7.53;;
56242;SDS011;42155;53.096;23.226;2023-09-08T04:52:53;20.95;;;7.20;;
56242;SDS011;42155;53.096;23.226;2023-09-08T04:54:53;14.85;;;6.78;;
56242;SDS011;42155;53.096;23.226;2023-09-08T04:56:54;22.98;;;7.45;;
56242;SDS011;42155;53.096;23.226;2023-09-08T04:58:54;16.92;;;6.45;;
56242;SDS011;42155;53.096;23.226;2023-09-08T05:00:54;16.98;;;4.93;;
56242;SDS011;42155;53.096;23.226;2023-09-08T05:02:56;17.58;;;5.45;;
56242;SDS011;42155;53.096;23.226;2023-09-08T05:04:56;18.13;;;6.40;;
56242;SDS011;42155;53.096;23.226;2023-09-08T05:06:57;13.80;;;5.88;;
56242;SDS011;42155;53.096;23.226;2023-09-08T05:08:58;16.88;;;6.18;;
56242;SDS011;42155;53.096;23.226;2023-09-08T05:10:58;20.98;;;6.78;;
56242;SDS011;42155;53.096;23.226;2023-09-08T05:12:59;13.48;;;5.63;;
56242;SDS011;42155;53.096;23.226;2023-09-08T05:14:59;15.25;;;5.03;;
56242;SDS011;42155;53.096;23.226;2023-09-08T05:16:59;14.07;;;5.22;;
56242;SDS011;42155;53.096;23.226;2023-09-08T05:19:00;14.68;;;5.45;;
56242;SDS011;42155;53.096;23.226;2023-09-08T05:21:00;14.80;;;6.28;;
56242;SDS011;42155;53.096;23.226;2023-09-08T05:23:00;22.13;;;5.93;;
56242;SDS011;42155;53.096;23.226;2023-09-08T05:25:01;18.48;;;5.80;;
56242;SDS011;42155;53.096;23.226;2023-09-08T05:27:01;12.13;;;4.82;;
56242;SDS011;42155;53.096;23.226;2023-09-08T05:29:02;19.98;;;4.97;;
56242;SDS011;42155;53.096;23.226;2023-09-08T05:31:02;15.05;;;4.28;;
56242;SDS011;42155;53.096;23.226;2023-09-08T05:33:02;15.40;;;4.30;;
56242;SDS011;42155;53.096;23.226;2023-09-08T05:35:03;16.42;;;4.80;;
56242;SDS011;42155;53.096;23.226;2023-09-08T05:37:04;16.13;;;4.68;;
56242;SDS011;42155;53.096;23.226;2023-09-08T05:39:04;18.30;;;4.07;;
56242;SDS011;42155;53.096;23.226;2023-09-08T05:41:04;18.20;;;4.38;;
56242;SDS011;42155;53.096;23.226;2023-09-08T05:43:05;14.77;;;4.40;;
56242;SDS011;42155;53.096;23.226;2023-09-08T05:45:05;15.65;;;4.40;;
56242;SDS011;42155;53.096;23.226;2023-09-08T05:47:06;17.88;;;4.20;;
56242;SDS011;42155;53.096;23.226;2023-09-08T05:49:06;16.20;;;3.63;;
56242;SDS011;42155;53.096;23.226;2023-09-08T05:51:07;12.60;;;4.38;;
56242;SDS011;42155;53.096;23.226;2023-09-08T05:53:07;12.75;;;4.10;;
56242;SDS011;42155;53.096;23.226;2023-09-08T05:55:07;7.70;;;3.50;;
56242;SDS011;42155;53.096;23.226;2023-09-08T05:57:08;9.10;;;3.42;;
56242;SDS011;42155;53.096;23.226;2023-09-08T05:59:08;10.35;;;3.53;;
56242;SDS011;42155;53.096;23.226;2023-09-08T06:01:08;8.88;;;3.72;;
56242;SDS011;42155;53.096;23.226;2023-09-08T06:03:09;11.57;;;3.33;;
56242;SDS011;42155;53.096;23.226;2023-09-08T06:05:09;12.10;;;3.13;;
56242;SDS011;42155;53.096;23.226;2023-09-08T06:07:09;11.43;;;3.47;;
56242;SDS011;42155;53.096;23.226;2023-09-08T06:09:10;11.40;;;3.05;;
56242;SDS011;42155;53.096;23.226;2023-09-08T06:11:10;13.60;;;3.55;;
56242;SDS011;42155;53.096;23.226;2023-09-08T06:13:10;8.65;;;3.35;;
56242;SDS011;42155;53.096;23.226;2023-09-08T06:15:11;10.13;;;3.30;;
56242;SDS011;42155;53.096;23.226;2023-09-08T06:17:11;9.63;;;3.08;;
56242;SDS011;42155;53.096;23.226;2023-09-08T06:19:12;9.13;;;3.33;;
56242;SDS011;42155;53.096;23.226;2023-09-08T06:21:12;11.35;;;3.10;;
56242;SDS011;42155;53.096;23.226;2023-09-08T06:23:13;11.27;;;3.20;;
56242;SDS011;42155;53.096;23.226;2023-09-08T06:25:13;12.43;;;3.35;;
56242;SDS011;42155;53.096;23.226;2023-09-08T06:27:14;8.55;;;3.17;;
56242;SDS011;42155;53.096;23.226;2023-09-08T06:29:15;7.75;;;3.30;;
56242;SDS011;42155;53.096;23.226;2023-09-08T06:31:15;9.07;;;3.03;;
56242;SDS011;42155;53.096;23.226;2023-09-08T06:33:16;12.30;;;3.47;;
56242;SDS011;42155;53.096;23.226;2023-09-08T06:35:16;7.05;;;2.80;;
56242;SDS011;42155;53.096;23.226;2023-09-08T06:37:16;7.00;;;3.10;;
56242;SDS011;42155;53.096;23.226;2023-09-08T06:39:17;8.55;;;3.10;;
56242;SDS011;42155;53.096;23.226;2023-09-08T06:41:17;13.68;;;3.17;;
56242;SDS011;42155;53.096;23.226;2023-09-08T06:43:18;10.95;;;3.03;;
56242;SDS011;42155;53.096;23.226;2023-09-08T06:45:18;9.85;;;2.97;;
56242;SDS011;42155;53.096;23.226;2023-09-08T06:47:19;14.30;;;3.08;;
56242;SDS011;42155;53.096;23.226;2023-09-08T06:49:19;10.00;;;3.40;;
56242;SDS011;42155;53.096;23.226;2023-09-08T06:51:20;15.02;;;3.67;;
56242;SDS011;42155;53.096;23.226;2023-09-08T06:53:20;14.95;;;3.45;;
56242;SDS011;42155;53.096;23.226;2023-09-08T06:55:20;19.63;;;3.40;;
56242;SDS011;42155;53.096;23.226;2023-09-08T06:57:21;16.02;;;3.50;;
56242;SDS011;42155;53.096;23.226;2023-09-08T06:59:21;12.60;;;3.28;;
56242;SDS011;42155;53.096;23.226;2023-09-08T07:01:21;9.93;;;3.40;;
56242;SDS011;42155;53.096;23.226;2023-09-08T07:03:22;8.88;;;2.70;;
56242;SDS011;42155;53.096;23.226;2023-09-08T07:05:22;8.77;;;2.72;;
56242;SDS011;42155;53.096;23.226;2023-09-08T07:07:22;6.85;;;2.80;;
56242;SDS011;42155;53.096;23.226;2023-09-08T07:09:23;9.93;;;3.10;;
56242;SDS011;42155;53.096;23.226;2023-09-08T07:11:23;6.95;;;2.75;;
56242;SDS011;42155;53.096;23.226;2023-09-08T07:13:23;11.93;;;3.22;;
56242;SDS011;42155;53.096;23.226;2023-09-08T07:15:24;5.40;;;2.60;;
56242;SDS011;42155;53.096;23.226;2023-09-08T07:17:24;7.05;;;2.70;;
56242;SDS011;42155;53.096;23.226;2023-09-08T07:19:25;7.05;;;2.92;;
56242;SDS011;42155;53.096;23.226;2023-09-08T07:21:26;8.40;;;2.58;;
56242;SDS011;42155;53.096;23.226;2023-09-08T07:23:26;7.28;;;3.03;;
56242;SDS011;42155;53.096;23.226;2023-09-08T07:25:27;12.18;;;3.17;;
56242;SDS011;42155;53.096;23.226;2023-09-08T07:27:27;5.28;;;2.58;;
56242;SDS011;42155;53.096;23.226;2023-09-08T07:29:27;6.13;;;2.38;;
56242;SDS011;42155;53.096;23.226;2023-09-08T07:31:28;6.47;;;2.25;;
56242;SDS011;42155;53.096;23.226;2023-09-08T07:33:28;4.57;;;2.60;;
56242;SDS011;42155;53.096;23.226;2023-09-08T07:35:28;5.72;;;2.10;;
56242;SDS011;42155;53.096;23.226;2023-09-08T07:37:28;13.43;;;2.90;;
56242;SDS011;42155;53.096;23.226;2023-09-08T07:39:29;6.63;;;2.72;;
56242;SDS011;42155;53.096;23.226;2023-09-08T07:41:29;6.13;;;2.42;;
56242;SDS011;42155;53.096;23.226;2023-09-08T07:43:30;5.97;;;2.33;;
56242;SDS011;42155;53.096;23.226;2023-09-08T07:45:30;7.70;;;2.72;;
56242;SDS011;42155;53.096;23.226;2023-09-08T07:47:30;7.85;;;2.40;;
56242;SDS011;42155;53.096;23.226;2023-09-08T07:49:33;14.23;;;2.83;;
56242;SDS011;42155;53.096;23.226;2023-09-08T07:51:34;10.90;;;2.72;;
56242;SDS011;42155;53.096;23.226;2023-09-08T07:53:34;12.70;;;2.65;;
56242;SDS011;42155;53.096;23.226;2023-09-08T07:55:34;8.40;;;2.50;;
56242;SDS011;42155;53.096;23.226;2023-09-08T07:57:35;9.90;;;2.58;;
56242;SDS011;42155;53.096;23.226;2023-09-08T07:59:35;5.43;;;2.58;;
56242;SDS011;42155;53.096;23.226;2023-09-08T08:01:35;4.60;;;2.20;;
56242;SDS011;42155;53.096;23.226;2023-09-08T08:03:36;5.15;;;2.47;;
56242;SDS011;42155;53.096;23.226;2023-09-08T08:05:36;5.30;;;2.47;;
56242;SDS011;42155;53.096;23.226;2023-09-08T08:07:37;7.40;;;2.38;;
56242;SDS011;42155;53.096;23.226;2023-09-08T08:09:38;7.28;;;2.42;;
56242;SDS011;42155;53.096;23.226;2023-09-08T08:11:39;9.13;;;3.00;;
56242;SDS011;42155;53.096;23.226;2023-09-08T08:13:39;14.13;;;2.95;;
56242;SDS011;42155;53.096;23.226;2023-09-08T08:15:40;6.13;;;2.65;;
56242;SDS011;42155;53.096;23.226;2023-09-08T08:17:41;6.13;;;2.90;;
56242;SDS011;42155;53.096;23.226;2023-09-08T08:19:41;6.78;;;2.60;;
56242;SDS011;42155;53.096;23.226;2023-09-08T08:21:42;8.35;;;3.13;;
56242;SDS011;42155;53.096;23.226;2023-09-08T08:23:42;22.38;;;3.60;;
56242;SDS011;42155;53.096;23.226;2023-09-08T08:25:42;10.00;;;3.03;;
56242;SDS011;42155;53.096;23.226;2023-09-08T08:27:43;13.65;;;3.20;;
56242;SDS011;42155;53.096;23.226;2023-09-08T08:29:43;6.53;;;2.78;;
56242;SDS011;42155;53.096;23.226;2023-09-08T08:31:43;9.15;;;2.75;;
56242;SDS011;42155;53.096;23.226;2023-09-08T08:33:44;5.95;;;2.40;;
56242;SDS011;42155;53.096;23.226;2023-09-08T08:35:50;5.68;;;2.90;;
56242;SDS011;42155;53.096;23.226;2023-09-08T08:37:52;5.22;;;2.28;;
56242;SDS011;42155;53.096;23.226;2023-09-08T08:39:53;5.70;;;2.47;;
56242;SDS011;42155;53.096;23.226;2023-09-08T08:41:54;5.22;;;2.35;;
56242;SDS011;42155;53.096;23.226;2023-09-08T08:43:54;7.88;;;2.80;;
56242;SDS011;42155;53.096;23.226;2023-09-08T08:45:55;3.90;;;2.33;;
56242;SDS011;42155;53.096;23.226;2023-09-08T08:47:58;4.00;;;2.38;;
56242;SDS011;42155;53.096;23.226;2023-09-08T08:50:00;9.00;;;2.67;;
56242;SDS011;42155;53.096;23.226;2023-09-08T08:52:01;7.30;;;2.42;;
56242;SDS011;42155;53.096;23.226;2023-09-08T08:54:02;5.72;;;2.45;;
56242;SDS011;42155;53.096;23.226;2023-09-08T08:56:03;5.82;;;2.38;;
56242;SDS011;42155;53.096;23.226;2023-09-08T08:58:04;6.63;;;2.50;;
56242;SDS011;42155;53.096;23.226;2023-09-08T09:00:06;5.63;;;2.28;;
56242;SDS011;42155;53.096;23.226;2023-09-08T09:02:09;5.88;;;2.33;;
56242;SDS011;42155;53.096;23.226;2023-09-08T09:04:14;4.85;;;2.20;;
56242;SDS011;42155;53.096;23.226;2023-09-08T09:06:15;4.07;;;2.15;;
56242;SDS011;42155;53.096;23.226;2023-09-08T09:08:16;7.40;;;2.40;;
56242;SDS011;42155;53.096;23.226;2023-09-08T09:10:17;5.45;;;2.58;;
56242;SDS011;42155;53.096;23.226;2023-09-08T09:12:18;5.22;;;2.38;;
56242;SDS011;42155;53.096;23.226;2023-09-08T09:14:18;5.75;;;2.30;;
56242;SDS011;42155;53.096;23.226;2023-09-08T09:16:19;6.88;;;2.42;;
56242;SDS011;42155;53.096;23.226;2023-09-08T09:18:19;11.90;;;2.50;;
56242;SDS011;42155;53.096;23.226;2023-09-08T09:20:19;4.50;;;2.30;;
56242;SDS011;42155;53.096;23.226;2023-09-08T09:22:20;5.63;;;2.28;;
56242;SDS011;42155;53.096;23.226;2023-09-08T09:26:34;7.60;;;2.55;;
56242;SDS011;42155;53.096;23.226;2023-09-08T09:28:38;5.18;;;2.05;;
56242;SDS011;42155;53.096;23.226;2023-09-08T09:30:48;4.25;;;2.10;;
56242;SDS011;42155;53.096;23.226;2023-09-08T09:33:03;4.28;;;2.00;;
56242;SDS011;42155;53.096;23.226;2023-09-08T09:35:04;7.18;;;2.28;;
56242;SDS011;42155;53.096;23.226;2023-09-08T09:37:05;7.28;;;2.65;;
56242;SDS011;42155;53.096;23.226;2023-09-08T09:39:06;6.32;;;2.60;;
56242;SDS011;42155;53.096;23.226;2023-09-08T09:41:06;5.70;;;2.30;;
56242;SDS011;42155;53.096;23.226;2023-09-08T09:43:07;4.60;;;2.00;;
56242;SDS011;42155;53.096;23.226;2023-09-08T09:45:08;4.28;;;2.55;;
56242;SDS011;42155;53.096;23.226;2023-09-08T09:47:09;6.03;;;2.33;;
56242;SDS011;42155;53.096;23.226;2023-09-08T09:49:16;7.57;;;2.75;;
56242;SDS011;42155;53.096;23.226;2023-09-08T09:51:17;19.60;;;3.95;;
56242;SDS011;42155;53.096;23.226;2023-09-08T09:53:19;5.10;;;2.05;;
56242;SDS011;42155;53.096;23.226;2023-09-08T09:55:20;7.90;;;3.00;;
56242;SDS011;42155;53.096;23.226;2023-09-08T09:57:21;5.80;;;2.50;;
56242;SDS011;42155;53.096;23.226;2023-09-08T09:59:22;7.15;;;2.72;;
56242;SDS011;42155;53.096;23.226;2023-09-08T10:01:24;4.63;;;2.50;;
56242;SDS011;42155;53.096;23.226;2023-09-08T10:03:24;5.03;;;2.30;;
56242;SDS011;42155;53.096;23.226;2023-09-08T10:05:26;4.60;;;2.40;;
56242;SDS011;42155;53.096;23.226;2023-09-08T10:07:27;3.83;;;2.20;;
56242;SDS011;42155;53.096;23.226;2023-09-08T10:09:27;10.27;;;2.80;;
56242;SDS011;42155;53.096;23.226;2023-09-08T10:13:45;4.72;;;2.85;;
56242;SDS011;42155;53.096;23.226;2023-09-08T10:15:46;4.15;;;2.25;;
56242;SDS011;42155;53.096;23.226;2023-09-08T10:17:54;4.32;;;2.45;;
56242;SDS011;42155;53.096;23.226;2023-09-08T10:19:56;5.45;;;2.40;;
56242;SDS011;42155;53.096;23.226;2023-09-08T10:22:00;6.38;;;2.50;;
56242;SDS011;42155;53.096;23.226;2023-09-08T10:24:04;5.03;;;2.28;;
56242;SDS011;42155;53.096;23.226;2023-09-08T10:26:13;6.90;;;2.40;;
56242;SDS011;42155;53.096;23.226;2023-09-08T10:28:16;6.70;;;2.30;;
56242;SDS011;42155;53.096;23.226;2023-09-08T10:30:17;21.35;;;3.47;;
56242;SDS011;42155;53.096;23.226;2023-09-08T10:32:18;6.60;;;2.53;;
56242;SDS011;42155;53.096;23.226;2023-09-08T10:34:21;4.57;;;2.40;;
56242;SDS011;42155;53.096;23.226;2023-09-08T10:36:23;8.73;;;2.72;;
56242;SDS011;42155;53.096;23.226;2023-09-08T10:38:25;3.65;;;2.10;;
56242;SDS011;42155;53.096;23.226;2023-09-08T10:40:26;4.05;;;2.45;;
56242;SDS011;42155;53.096;23.226;2023-09-08T10:42:27;4.38;;;2.60;;
56242;SDS011;42155;53.096;23.226;2023-09-08T10:44:27;5.72;;;2.60;;
56242;SDS011;42155;53.096;23.226;2023-09-08T10:46:28;4.47;;;2.13;;
56242;SDS011;42155;53.096;23.226;2023-09-08T10:48:33;4.90;;;2.50;;
56242;SDS011;42155;53.096;23.226;2023-09-08T10:50:41;5.32;;;2.80;;
56242;SDS011;42155;53.096;23.226;2023-09-08T10:52:42;5.28;;;2.20;;
56242;SDS011;42155;53.096;23.226;2023-09-08T10:54:43;6.25;;;2.72;;
56242;SDS011;42155;53.096;23.226;2023-09-08T10:56:48;4.30;;;2.78;;
56242;SDS011;42155;53.096;23.226;2023-09-08T10:58:54;8.18;;;2.70;;
56242;SDS011;42155;53.096;23.226;2023-09-08T11:00:56;3.70;;;2.20;;
56242;SDS011;42155;53.096;23.226;2023-09-08T11:02:59;5.10;;;2.50;;
56242;SDS011;42155;53.096;23.226;2023-09-08T11:04:59;4.63;;;2.80;;
56242;SDS011;42155;53.096;23.226;2023-09-08T11:07:00;11.23;;;3.17;;
56242;SDS011;42155;53.096;23.226;2023-09-08T11:09:07;6.75;;;2.90;;
56242;SDS011;42155;53.096;23.226;2023-09-08T11:11:09;6.53;;;2.50;;
56242;SDS011;42155;53.096;23.226;2023-09-08T11:13:11;3.42;;;2.03;;
56242;SDS011;42155;53.096;23.226;2023-09-08T11:15:11;5.65;;;2.58;;
56242;SDS011;42155;53.096;23.226;2023-09-08T11:17:11;5.10;;;2.40;;
56242;SDS011;42155;53.096;23.226;2023-09-08T11:19:13;7.72;;;2.85;;
56242;SDS011;42155;53.096;23.226;2023-09-08T11:21:13;9.70;;;2.55;;
56242;SDS011;42155;53.096;23.226;2023-09-08T11:23:13;8.48;;;2.70;;
56242;SDS011;42155;53.096;23.226;2023-09-08T11:25:14;3.90;;;2.60;;
56242;SDS011;42155;53.096;23.226;2023-09-08T11:27:15;7.00;;;2.78;;
56242;SDS011;42155;53.096;23.226;2023-09-08T11:29:15;4.70;;;2.65;;
56242;SDS011;42155;53.096;23.226;2023-09-08T11:31:15;4.28;;;2.45;;
56242;SDS011;42155;53.096;23.226;2023-09-08T11:33:20;4.57;;;2.55;;
56242;SDS011;42155;53.096;23.226;2023-09-08T11:35:21;4.43;;;2.60;;
56242;SDS011;42155;53.096;23.226;2023-09-08T11:37:25;6.28;;;2.55;;
56242;SDS011;42155;53.096;23.226;2023-09-08T11:39:26;5.78;;;2.58;;
56242;SDS011;42155;53.096;23.226;2023-09-08T11:41:26;4.22;;;2.50;;
56242;SDS011;42155;53.096;23.226;2023-09-08T11:43:28;4.47;;;2.33;;
56242;SDS011;42155;53.096;23.226;2023-09-08T11:45:28;5.93;;;2.30;;
56242;SDS011;42155;53.096;23.226;2023-09-08T11:47:30;9.20;;;2.90;;
56242;SDS011;42155;53.096;23.226;2023-09-08T11:49:38;11.20;;;2.63;;
56242;SDS011;42155;53.096;23.226;2023-09-08T11:51:41;6.15;;;2.90;;
56242;SDS011;42155;53.096;23.226;2023-09-08T11:53:43;13.02;;;2.85;;
56242;SDS011;42155;53.096;23.226;2023-09-08T11:55:43;4.47;;;2.28;;
56242;SDS011;42155;53.096;23.226;2023-09-08T11:57:45;6.15;;;2.88;;
56242;SDS011;42155;53.096;23.226;2023-09-08T11:59:47;3.78;;;2.63;;
56242;SDS011;42155;53.096;23.226;2023-09-08T12:01:48;7.72;;;2.60;;